PDT,Max TemperatureF,Mean TemperatureF,Min TemperatureF,Max Dew PointF,MeanDew PointF,Min DewpointF,Max Humidity, Mean Humidity, Min Humidity, Max Sea Level PressureIn, Mean Sea Level PressureIn, Min Sea Level PressureIn, Max VisibilityMiles, Mean VisibilityMiles, Min VisibilityMiles, Max Wind SpeedMPH, Mean Wind SpeedMPH, Max Gust SpeedMPH,PrecipitationIn, CloudCover, Events, WindDirDegrees
2011-10-1,60,52,44,54,48,45,100,86,62,29.99,29.91,29.85,10,10,10,12,3,16,0.00,6,,254
2011-10-2,62,50,37,54,48,38,100,90,70,29.98,29.85,29.74,10,9,4,15,5,25,0.31,5,Rain,119
2011-10-3,60,56,52,54,51,48,94,88,77,29.78,29.75,29.72,10,9,2,17,8,31,0.27,5,Rain,157
2011-10-4,54,52,50,50,48,47,96,90,80,29.70,29.52,29.39,10,8,2,22,9,31,0.65,8,Rain,136
2011-10-5,60,53,46,52,48,45,100,88,63,29.78,29.58,29.39,10,9,0,10,3,16,0.32,6,Fog-Rain,131
2011-10-6,58,50,42,52,47,41,100,94,72,30.07,29.92,29.78,10,7,0,10,2,13,T,7,Fog-Rain,225
2011-10-7,60,51,42,54,49,43,100,94,77,30.22,30.14,30.07,10,6,0,9,1,12,0.05,5,Fog-Rain,288
2011-10-8,61,53,44,56,49,43,100,95,72,30.22,30.14,30.06,10,4,0,16,5,28,0.66,7,Fog-Rain,133
2011-10-9,60,52,43,52,46,43,100,94,62,30.11,30.04,29.76,10,4,0,9,2,12,0.00,4,Fog,15
2011-10-10,58,53,48,55,52,46,100,93,82,29.75,29.52,29.45,10,8,2,17,7,26,0.60,8,Rain,173
2011-10-11,57,54,51,56,52,48,100,93,86,30.05,29.70,29.46,10,8,1,21,7,30,0.71,7,Rain,217
2011-10-12,59,52,45,52,48,32,100,88,62,30.25,30.18,30.06,10,8,0,10,4,22,0.89,4,Fog-Rain,176
2011-10-13,61,52,42,48,43,40,96,79,57,30.25,30.16,30.04,10,10,10,12,5,14,T,1,Rain,45
2011-10-14,60,49,38,47,43,39,100,86,55,30.03,30.00,29.98,10,8,2,8,2,10,0.00,1,,25
2011-10-15,59,46,32,47,39,31,100,89,60,30.12,30.06,30.03,10,7,2,10,2,13,0.00,0,,6
2011-10-16,58,45,31,46,40,29,100,85,60,30.34,30.20,30.07,10,10,7,12,1,16,0.00,3,,278
2011-10-17,63,50,37,49,42,37,97,82,60,30.43,30.36,30.28,10,10,9,10,2,13,0.00,2,,334
2011-10-18,70,55,40,53,45,38,93,76,45,30.27,30.08,29.93,10,10,10,9,3,12,0.00,0,,78
2011-10-19,60,51,41,52,50,42,100,93,67,30.08,30.02,29.90,10,7,2,13,2,16,0.35,7,Rain,246
2011-10-20,59,52,44,54,50,45,100,92,62,30.12,30.08,30.05,10,6,0,7,2,10,0.10,7,Fog-Rain,235
2011-10-21,58,55,51,57,54,50,100,97,90,30.22,30.10,30.05,10,5,1,16,5,29,1.52,8,Rain,192
2011-10-22,58,54,49,58,56,50,100,98,93,30.20,30.14,30.06,10,5,0,16,6,23,0.93,8,Fog-Rain,228
2011-10-23,58,49,39,52,45,39,100,97,64,30.22,30.20,30.16,10,2,0,10,2,17,0.01,6,Fog-Rain,280
2011-10-24,57,46,35,46,40,35,100,95,62,30.40,30.29,30.19,10,4,0,10,2,13,T,5,Fog-Rain,335
2011-10-25,56,45,33,44,38,33,100,93,64,30.48,30.42,30.38,10,6,1,8,2,10,0.01,1,,100
2011-10-26,52,44,36,48,42,37,100,95,82,30.37,30.26,30.19,10,4,0,14,2,20,0.17,6,Fog-Rain,135
2011-10-27,54,48,42,45,36,32,100,94,62,30.32,30.26,30.00,10,4,0,7,3,,0.00,2,Fog,88
2011-10-28,54,48,42,54,48,32,100,95,66,30.11,29.92,29.80,10,5,1,22,6,30,2.07,7,Rain,197
2011-10-29,57,48,39,48,43,39,100,92,64,30.29,30.19,30.11,10,6,0,10,4,15,T,3,Fog-Rain,85
2011-10-30,56,48,40,55,49,39,100,96,83,30.23,30.08,29.99,10,4,0,14,4,23,0.70,7,Fog-Rain,232
2011-10-31,53,45,36,43,40,36,100,88,63,30.49,30.36,30.23,10,7,0,17,5,26,0.07,4,Fog-Rain,335